Latest Weather Observations for Coolangatta

IDQ60901

Issued at 6:21 am EST Saturday 16 October 2021 (issued every 10 minutes, with the page automatically refreshed every 10 minutes)

About weather observations | Map of Brisbane area stations | Latest observations for Brisbane area | Other Formats
Station Details ID: 040717 Name: COOLANGATTA Lat: -28.17 Lon: 153.51 Height: 4.0 m
Data from the previous 72 hours. | See also: Recent months at Coolangatta
Date/Time
EST
Temp
°C
App
Temp
°C
Dew
Point
°C
Rel
Hum
%
Delta-T
°C
Wind Press
QNH
hPa
Press
MSL
hPa
Rain since
9am
mm
Dir  Spd
km/h
Gust
km/h
Spd
kts
Gust
kts
16/06:00am 13.0 12.7 11.6 91 0.7 SW 4 11 2 6 1008.9 1008.8 5.0
16/05:30am 11.1 10.6 9.5 90 0.8 SW 2 7 1 4 1008.1 1008.0 5.0
16/05:00am 10.4 9.1 9.2 92 0.6 WSW 6 9 3 5 1007.5 1007.4 5.0
16/04:30am 11.1 10.1 10.3 95 0.4 SW 6 13 3 7 1007.4 1007.3 5.0
16/04:00am 11.1 10.8 10.0 93 0.6 WSW 2 9 1 5 1007.0 1006.9 5.0
16/03:30am 10.9 10.5 9.8 93 0.6 W 2 7 1 4 1007.1 1007.0 5.0
16/03:00am 11.0 10.6 9.9 93 0.6 W 2 9 1 5 1007.3 1007.2 5.0
16/02:30am 10.9 10.8 9.5 91 0.7 CALM 0 2 0 1 1007.4 1007.3 5.0
16/02:00am 11.3 10.9 9.7 90 0.8 W 2 6 1 3 1007.5 1007.4 5.0
16/01:30am 12.0 11.7 10.2 89 0.9 WNW 2 7 1 4 1007.8 1007.7 5.0
16/01:00am 12.4 12.2 10.6 89 0.9 WNW 2 6 1 3 1007.9 1007.8 5.0
16/12:30am 13.0 12.1 10.7 86 1.2 W 6 7 3 4 1007.7 1007.6 5.0
16/12:00am 13.1 13.4 10.8 86 1.2 CALM 0 4 0 2 1007.5 1007.4 5.0
 
Date/Time
EST
Temp
°C
App
Temp
°C
Dew
Point
°C
Rel
Hum
%
Delta-T
°C
Wind Press
QNH
hPa
Press
MSL
hPa
Rain since
9am
mm
Dir  Spd
km/h
Gust
km/h
Spd
kts
Gust
kts
15/11:30pm 14.9 13.4 10.7 76 2.2 SW 9 11 5 6 1007.3 1007.2 5.0
15/11:00pm 15.5 13.5 11.5 77 2.2 SW 13 17 7 9 1007.2 1007.1 5.0
15/10:30pm 15.7 15.7 14.1 90 0.9 SW 7 11 4 6 1007.3 1007.2 5.0
15/10:00pm 16.3 15.9 15.2 93 0.6 WSW 11 13 6 7 1007.1 1007.0 5.0
15/09:30pm 16.9 17.1 15.8 93 0.6 WSW 9 13 5 7 1007.1 1007.0 5.0
15/09:00pm 17.4 18.2 16.3 93 0.7 WSW 7 9 4 5 1007.0 1006.9 5.0
15/08:30pm 18.9 19.7 18.1 95 0.5 W 11 13 6 7 1006.9 1006.8 5.0
15/08:00pm 19.7 21.5 18.2 91 0.9 NW 6 7 3 4 1006.6 1006.5 5.0
15/07:30pm 20.4 22.4 18.7 90 1.1 NNW 6 13 3 7 1006.4 1006.3 5.0
15/07:00pm 21.1 21.4 19.6 91 1.0 NNW 17 24 9 13 1006.0 1005.9 5.0
15/06:30pm 21.3 21.1 19.8 91 1.0 N 20 26 11 14 1005.8 1005.7 5.0
15/06:00pm 21.7 21.1 19.8 89 1.2 N 22 28 12 15 1005.2 1005.1 5.0
15/05:30pm 22.2 20.8 19.7 86 1.6 N 26 35 14 19 1004.5 1004.4 5.0
15/05:00pm 22.7 21.1 20.0 85 1.7 N 28 35 15 19 1003.8 1003.7 5.0
15/04:30pm 23.2 20.6 20.0 82 2.1 N 33 44 18 24 1003.4 1003.3 5.0
15/04:00pm 23.9 21.2 19.2 75 3.0 N 32 41 17 22 1003.2 1003.1 5.0
15/03:30pm 24.1 20.4 18.3 70 3.7 N 35 46 19 25 1003.2 1003.1 5.0
15/03:00pm 28.8 23.0 6.2 24 12.0 NNW 26 39 14 21 1003.5 1003.4 5.0
15/02:30pm 29.0 23.4 7.0 25 11.8 NNW 26 43 14 23 1003.5 1003.4 5.0
15/02:00pm 29.0 23.1 7.6 26 11.6 NW 28 41 15 22 1003.5 1003.4 5.0
15/01:30pm 28.6 23.0 8.8 29 10.9 NW 28 46 15 25 1003.8 1003.7 5.0
15/01:19pm 28.6 23.3 9.8 31 10.5 NW 28 46 15 25 1003.7 1003.6 5.0
15/01:00pm 28.1 23.0 12.0 36 9.4 NW 30 44 16 24 1003.9 1003.8 5.0
15/12:30pm 25.3 22.1 18.2 64 4.5 N 32 41 17 22 1004.4 1004.3 5.0
15/12:00pm 25.0 22.7 16.7 60 5.1 NNW 24 39 13 21 1005.2 1005.1 5.0
15/11:30am 27.4 26.2 17.0 53 6.5 NNW 19 35 10 19 1005.6 1005.5 5.0
15/11:00am 25.2 23.6 19.1 69 3.9 N 26 33 14 18 1005.7 1005.6 5.0
15/10:30am 24.7 24.4 19.5 73 3.3 N 20 26 11 14 1006.2 1006.1 5.0
15/10:00am 24.4 24.6 20.1 77 2.8 NNW 19 28 10 15 1006.8 1006.7 5.0
15/09:32am 22.0 20.6 18.8 82 2.0 NNW 24 39 13 21 1007.3 1007.2 5.0
15/09:30am 21.6 20.0 18.4 82 2.0 NNW 24 39 13 21 1007.5 1007.4 5.0
15/09:28am 21.3 19.7 18.3 83 1.9 NNW 24 37 13 20 1007.6 1007.5 5.0
15/09:03am 21.9 20.8 20.2 90 1.1 NNW 26 43 14 23 1008.5 1008.4 0.8
15/09:00am 22.0 20.5 20.3 90 1.1 NNW 28 43 15 23 1008.3 1008.2 40.4
15/08:51am 22.8 21.2 20.0 84 1.8 N 28 35 15 19 1007.6 1007.5 38.8
15/08:30am 24.6 23.2 20.5 78 2.7 NNW 28 41 15 22 1007.5 1007.4 38.8
15/08:00am 22.7 23.3 20.2 86 1.6 NNW 17 24 9 13 1007.4 1007.3 38.8
15/07:30am 20.6 22.5 19.8 95 0.5 WNW 9 15 5 8 1008.2 1008.1 38.8
15/07:09am 19.9 20.9 19.4 97 0.3 N 13 17 7 9 1008.2 1008.1 38.8
15/07:06am 19.6 20.0 19.1 97 0.3 N 15 20 8 11 1008.2 1008.1 38.8
15/07:02am 19.5 19.9 19.0 97 0.3 NNW 15 20 8 11 1008.3 1008.2 38.8
15/07:00am 19.6 20.0 19.1 97 0.3 NNW 15 20 8 11 1008.4 1008.3 38.8
15/06:37am 18.7 17.1 17.4 92 0.8 W 22 54 12 29 1008.0 1007.9 28.8
15/06:30am 21.2 22.5 20.2 94 0.6 NW 13 19 7 10 1007.7 1007.6 14.2
15/06:28am 21.2 22.4 20.0 93 0.8 NW 13 19 7 10 1007.8 1007.7 12.8
15/06:26am 21.2 22.4 20.0 93 0.8 NW 13 19 7 10 1007.8 1007.7 12.0
15/06:11am 21.4 19.0 19.9 91 1.0 N 32 44 17 24 1008.1 1008.0 9.2
15/06:03am 21.5 18.5 19.8 90 1.1 N 35 48 19 26 1007.7 1007.6 8.2
15/06:00am 21.5 18.9 20.0 91 1.0 N 33 48 18 26 1007.5 1007.4 8.0
15/05:54am 21.6 19.2 19.9 90 1.1 N 32 46 17 25 1007.4 1007.3 7.8
15/05:30am 21.7 21.1 19.8 89 1.2 N 22 26 12 14 1007.0 1006.9 7.8
15/05:00am 21.7 22.8 20.5 93 0.8 N 15 22 8 12 1007.0 1006.9 7.8
15/04:36am 21.7 21.0 20.3 92 0.9 N 24 30 13 16 1007.3 1007.2 7.8
15/04:30am 21.8 21.2 20.6 93 0.8 N 24 30 13 16 1007.6 1007.5 7.8
15/04:00am 21.5 22.4 20.1 92 0.9 N 15 20 8 11 1007.4 1007.3 7.8
15/03:30am 21.7 22.3 20.3 92 0.9 N 17 22 9 12 1007.6 1007.5 7.8
15/03:25am 21.7 22.3 20.3 92 0.9 N 17 22 9 12 1007.7 1007.6 7.8
15/03:14am 21.6 21.6 20.2 92 0.9 N 20 32 11 17 1007.6 1007.5 7.8
15/03:07am 20.5 18.3 18.8 90 1.1 NNE 28 46 15 25 1007.8 1007.7 7.8
15/03:00am 21.0 18.4 19.8 93 0.8 N 33 46 18 25 1007.6 1007.5 7.8
15/02:45am 21.6 21.6 20.9 96 0.5 N 22 32 12 17 1007.9 1007.8 7.6
15/02:30am 21.7 22.7 21.0 96 0.5 NNE 17 24 9 13 1008.1 1008.0 7.6
15/02:19am 21.8 21.3 20.8 94 0.6 N 24 30 13 16 1008.5 1008.4 2.0
15/02:00am 21.8 22.1 20.8 94 0.7 NNE 20 28 11 15 1007.6 1007.5 0.6
15/01:57am 21.7 21.6 20.7 94 0.6 NNE 22 30 12 16 1007.4 1007.3 0.6
15/01:53am 21.8 21.7 20.8 94 0.6 NNE 22 32 12 17 1007.5 1007.4 0.6
15/01:30am 21.7 22.1 20.9 95 0.5 N 20 26 11 14 1008.6 1008.5 0.6
15/01:22am 21.6 22.1 20.8 95 0.5 N 19 24 10 13 1008.7 1008.6 0.6
15/01:00am 21.6 22.9 20.8 95 0.5 N 15 20 8 11 1009.0 1008.9 0.6
15/12:47am 21.5 22.7 20.7 95 0.5 N 15 19 8 10 1009.2 1009.1 0.6
15/12:46am 21.5 23.1 20.7 95 0.5 N 13 19 7 10 1009.2 1009.1 0.6
15/12:30am 21.6 22.1 20.8 95 0.5 N 19 22 10 12 1009.4 1009.3 0.6
15/12:26am 21.6 21.8 20.6 94 0.6 N 20 24 11 13 1009.5 1009.4 0.6
15/12:22am 21.7 22.0 20.7 94 0.6 N 20 28 11 15 1009.5 1009.4 0.6
15/12:00am 21.6 21.8 20.6 94 0.6 N 20 26 11 14 1009.7 1009.6 0.6
 
Date/Time
EST
Temp
°C
App
Temp
°C
Dew
Point
°C
Rel
Hum
%
Delta-T
°C
Wind Press
QNH
hPa
Press
MSL
hPa
Rain since
9am
mm
Dir  Spd
km/h
Gust
km/h
Spd
kts
Gust
kts
14/11:30pm 21.6 21.7 20.4 93 0.8 N 20 26 11 14 1010.0 1009.9 0.6
14/11:00pm 21.3 22.1 19.8 91 1.0 N 15 19 8 10 1010.2 1010.1 0.6
14/10:30pm 21.2 22.3 19.7 91 1.0 N 13 15 7 8 1010.6 1010.5 0.6
14/10:00pm 21.2 22.5 19.3 89 1.2 N 11 15 6 8 1011.0 1010.9 0.6
14/09:30pm 21.2 22.9 19.3 89 1.2 NNW 9 11 5 6 1011.3 1011.2 0.6
14/09:00pm 21.1 22.6 19.0 88 1.3 NNW 9 13 5 7 1011.4 1011.3 0.6
14/08:55pm 21.1 22.6 19.0 88 1.3 NNW 9 13 5 7 1011.3 1011.2 0.6
14/08:30pm 21.2 22.4 19.1 88 1.3 N 11 15 6 8 1011.3 1011.2 0.6
14/08:00pm 21.1 22.0 19.2 89 1.2 N 13 17 7 9 1011.7 1011.6 0.6
14/07:42pm 21.0 20.6 18.8 87 1.4 N 19 24 10 13 1011.7 1011.6 0.6
14/07:30pm 21.2 22.0 19.1 88 1.3 N 13 17 7 9 1011.7 1011.6 0.6
14/07:12pm 21.1 22.3 19.0 88 1.3 NNW 11 15 6 8 1011.7 1011.6 0.6
14/07:00pm 21.0 22.1 18.9 88 1.3 NNW 11 15 6 8 1011.6 1011.5 0.6
14/06:30pm 20.6 22.2 18.2 86 1.5 NNW 7 9 4 5 1011.2 1011.1 0.6
14/06:00pm 20.9 22.0 17.9 83 1.9 N 9 13 5 7 1011.1 1011.0 0.6
14/05:30pm 21.4 21.6 17.6 79 2.3 N 13 17 7 9 1010.8 1010.7 0.6
14/05:00pm 22.0 21.7 17.4 75 2.8 NNW 15 19 8 10 1010.7 1010.6 0.6
14/04:30pm 22.0 22.0 17.2 74 2.9 N 13 17 7 9 1010.4 1010.3 0.6
14/04:00pm 22.0 22.0 17.2 74 3.0 N 13 19 7 10 1010.3 1010.2 0.6
14/03:30pm 22.6 22.1 17.7 74 3.0 N 17 20 9 11 1010.4 1010.3 0.6
14/03:00pm 22.8 22.1 17.3 71 3.4 N 17 24 9 13 1010.5 1010.4 0.6
14/02:30pm 22.5 21.9 17.6 74 3.0 N 17 24 9 13 1010.9 1010.8 0.6
14/02:00pm 22.2 21.2 17.6 75 2.8 N 19 24 10 13 1010.9 1010.8 0.6
14/01:30pm 22.5 21.9 17.6 74 3.0 N 17 24 9 13 1011.1 1011.0 0.2
14/01:00pm 21.8 21.2 17.6 77 2.6 N 17 24 9 13 1011.5 1011.4 0.2
14/12:30pm 21.2 19.6 16.6 75 2.8 NNW 20 28 11 15 1011.9 1011.8 0.2
14/12:03pm 21.1 18.4 16.7 76 2.7 N 26 32 14 17 1011.9 1011.8 0.2
14/12:00pm 21.1 18.4 16.5 75 2.8 N 26 32 14 17 1012.0 1011.9 0.2
14/11:47am 21.1 19.4 17.3 79 2.3 N 22 30 12 16 1012.1 1012.0 0.2
14/11:30am 21.8 20.1 18.2 80 2.2 N 24 32 13 17 1012.3 1012.2 0.2
14/11:00am 21.2 19.2 18.2 83 1.9 N 26 33 14 18 1012.4 1012.3 0.2
14/10:47am 20.5 17.4 16.5 78 2.4 N 28 35 15 19 1012.4 1012.3 0.2
14/10:35am 20.7 18.4 17.7 83 1.8 N 26 33 14 18 1012.5 1012.4 0.2
14/10:30am 20.9 19.4 18.5 86 1.5 N 24 33 13 18 1012.6 1012.5 0.2
14/10:00am 20.4 18.0 18.3 88 1.3 N 28 35 15 19 1012.8 1012.8 0.2
14/09:30am 20.0 18.3 18.0 88 1.2 NNE 24 32 13 17 1013.2 1013.2 0.2
14/09:22am 19.9 18.2 18.0 89 1.2 N 24 35 13 19 1013.3 1013.3 0.2
14/09:00am 19.5 17.3 17.8 90 1.0 N 26 35 14 19 1013.4 1013.4 21.8
14/08:30am 19.6 17.8 17.9 90 1.0 NNE 24 30 13 16 1013.2 1013.2 21.6
14/08:06am 19.8 17.4 18.3 91 0.9 NNE 28 35 15 19 1013.2 1013.2 21.4
14/08:00am 19.9 17.5 18.2 90 1.1 NNE 28 35 15 19 1013.3 1013.3 21.4
14/07:37am 19.9 16.9 17.7 87 1.4 NNE 30 41 16 22 1013.4 1013.4 21.4
14/07:30am 19.7 15.9 17.3 86 1.5 NNE 33 43 18 23 1013.1 1013.1 21.4
14/07:27am 19.8 16.3 17.8 88 1.2 NNE 33 44 18 24 1013.0 1013.0 21.4
14/07:19am 19.8 16.4 17.8 88 1.2 NNE 32 43 17 23 1013.0 1013.0 21.4
14/07:09am 19.9 16.6 18.0 89 1.2 NNE 32 39 17 21 1012.9 1012.9 21.4
14/07:00am 19.7 17.1 17.7 88 1.2 NNE 28 37 15 20 1012.8 1012.8 21.4
14/06:49am 19.7 17.1 17.8 89 1.2 NNE 28 39 15 21 1012.9 1012.9 21.4
14/06:30am 19.7 17.9 17.8 89 1.2 NE 24 33 13 18 1012.6 1012.5 21.4
14/06:26am 19.6 17.7 17.7 89 1.2 NE 24 33 13 18 1012.5 1012.4 21.4
14/06:00am 19.6 17.7 17.6 88 1.2 NNE 24 37 13 20 1012.2 1012.1 21.4
14/05:30am 19.5 17.8 18.0 91 0.9 NE 24 33 13 18 1012.2 1012.1 21.4
14/05:27am 19.6 18.4 18.3 92 0.8 NE 22 33 12 18 1012.2 1012.1 21.0
14/05:26am 19.5 18.2 18.2 92 0.8 NNE 22 33 12 18 1012.1 1012.0 21.0
14/05:05am 19.7 18.1 18.4 92 0.8 NNE 24 33 13 18 1012.0 1011.9 20.2
14/05:02am 19.7 18.0 18.0 90 1.0 NE 24 33 13 18 1012.0 1011.9 19.6
14/05:00am 19.9 18.2 18.0 89 1.2 NE 24 32 13 17 1012.0 1011.9 19.0
14/04:30am 20.0 18.1 17.6 86 1.5 ENE 24 37 13 20 1011.2 1011.1 18.0
14/04:00am 19.6 17.6 17.4 87 1.3 NE 24 35 13 19 1011.9 1011.8 17.6
14/03:30am 19.8 18.6 17.4 86 1.5 ENE 20 37 11 20 1010.6 1010.5 17.4
14/03:00am 20.4 17.9 17.2 82 2.0 NE 26 35 14 19 1011.3 1011.2 17.4
14/02:30am 20.5 18.5 17.3 82 2.0 ENE 24 30 13 16 1011.7 1011.6 17.4
14/02:00am 20.4 19.1 17.2 82 2.0 ENE 20 26 11 14 1011.8 1011.7 17.4
14/01:30am 20.3 18.9 16.9 81 2.1 ENE 20 28 11 15 1012.1 1012.0 17.4
14/01:00am 20.1 19.1 17.5 85 1.6 ENE 19 24 10 13 1012.2 1012.1 17.4
14/12:30am 19.9 19.9 17.3 85 1.6 ENE 13 22 7 12 1012.9 1012.9 17.4
14/12:00am 19.8 18.6 17.0 84 1.7 NE 19 28 10 15 1013.5 1013.5 17.4
 
Date/Time
EST
Temp
°C
App
Temp
°C
Dew
Point
°C
Rel
Hum
%
Delta-T
°C
Wind Press
QNH
hPa
Press
MSL
hPa
Rain since
9am
mm
Dir  Spd
km/h
Gust
km/h
Spd
kts
Gust
kts
13/11:30pm 19.5 18.0 16.7 84 1.7 ENE 20 28 11 15 1013.5 1013.5 17.4
13/11:20pm 19.9 18.4 16.7 82 1.9 ENE 20 28 11 15 1013.4 1013.4 17.2
13/11:07pm 19.5 17.1 16.5 83 1.8 NE 24 32 13 17 1013.4 1013.4 17.2
13/11:00pm 19.8 17.0 16.3 80 2.1 NE 26 32 14 17 1013.5 1013.5 17.2
13/10:30pm 20.6 19.0 16.4 77 2.5 NE 20 28 11 15 1013.8 1013.8 17.2
13/10:00pm 20.5 18.4 16.1 76 2.6 ENE 22 30 12 16 1014.2 1014.2 17.2
13/09:30pm 20.6 18.6 16.4 77 2.5 ENE 22 32 12 17 1014.0 1014.0 17.2
13/09:00pm 20.5 17.9 15.9 75 2.7 ENE 24 32 13 17 1014.1 1014.1 17.2
13/08:30pm 19.8 18.2 16.1 79 2.2 E 19 24 10 13 1014.1 1014.1 17.2
13/08:00pm 19.9 17.8 16.2 79 2.2 ENE 22 30 12 16 1014.1 1014.1 17.2
13/07:30pm 20.4 18.7 16.2 77 2.5 E 20 30 11 16 1014.0 1014.0 17.2
13/07:00pm 20.5 18.0 16.1 76 2.6 ENE 24 32 13 17 1013.8 1013.8 17.2
13/06:30pm 20.5 18.0 16.1 76 2.6 ENE 24 32 13 17 1013.2 1013.2 17.2
13/06:00pm 20.4 17.8 15.8 75 2.7 ENE 24 33 13 18 1013.0 1013.0 17.2
13/05:30pm 20.4 18.7 16.2 77 2.5 ENE 20 33 11 18 1012.9 1012.9 17.2
13/05:00pm 20.3 18.3 16.5 79 2.3 E 22 32 12 17 1012.5 1012.4 17.2
13/04:30pm 20.1 18.4 16.3 79 2.3 E 20 32 11 17 1012.3 1012.2 17.2
13/04:15pm 19.5 17.8 16.3 82 1.9 E 20 30 11 16 1012.2 1012.1 17.2
13/04:00pm 18.9 17.9 16.7 87 1.3 E 17 26 9 14 1012.2 1012.1 17.2
13/03:30pm 19.3 19.3 17.1 87 1.3 NE 13 24 7 13 1012.2 1012.1 15.2
13/03:00pm 19.4 18.9 16.8 85 1.6 ENE 15 24 8 13 1012.3 1012.2 12.2
13/02:30pm 19.4 18.1 16.8 85 1.6 ENE 19 30 10 16 1012.1 1012.0 11.0
13/02:27pm 19.6 18.3 17.2 86 1.5 ENE 20 30 11 16 1012.1 1012.0 11.0
13/02:25pm 19.8 18.5 17.2 85 1.6 ENE 20 30 11 16 1012.1 1012.0 10.8
13/02:00pm 19.5 17.3 16.9 85 1.6 ENE 24 33 13 18 1012.1 1012.0 10.8
13/01:30pm 19.2 19.2 17.3 89 1.2 E 13 22 7 12 1012.3 1012.2 8.2
13/01:00pm 19.2 18.9 17.3 89 1.2 ESE 15 24 8 13 1012.4 1012.3 5.6
13/12:30pm 19.6 17.2 17.4 87 1.3 ENE 26 35 14 19 1012.6 1012.5 4.0
13/12:06pm 19.7 18.5 17.5 87 1.3 ENE 20 28 11 15 1012.8 1012.8 3.4
13/12:00pm 19.3 16.9 17.3 88 1.2 ENE 26 35 14 19 1012.9 1012.9 3.4
13/11:33am 19.4 18.7 17.4 88 1.2 E 17 28 9 15 1013.2 1013.2 2.4
13/11:30am 19.6 18.5 17.2 86 1.5 E 19 28 10 15 1013.2 1013.2 1.2
13/11:26am 19.9 18.5 17.1 84 1.7 E 20 30 11 16 1013.2 1013.2 0.4
13/11:00am 21.6 19.4 17.0 75 2.8 E 24 33 13 18 1013.4 1013.4 0.4
13/10:30am 22.5 20.8 18.1 76 2.7 ENE 24 32 13 17 1013.5 1013.5 0.0
13/10:00am 22.2 21.1 17.8 76 2.7 ESE 20 28 11 15 1013.7 1013.7 0.0
13/09:55am 22.3 22.0 19.1 82 2.0 ESE 19 26 10 14 1013.6 1013.6 0.0
13/09:32am 19.4 17.2 16.8 85 1.6 E 24 33 13 18 1013.8 1013.8 0.0
13/09:30am 19.8 17.7 17.2 85 1.6 E 24 35 13 19 1013.8 1013.8 0.0
13/09:00am 20.8 19.3 17.6 82 2.0 ESE 22 30 12 16 1013.8 1013.8 19.0
13/08:30am 19.8 20.8 18.6 93 0.7 S 11 20 6 11 1013.9 1013.9 19.0
13/08:00am 18.6 18.3 17.4 93 0.7 SSW 15 20 8 11 1013.8 1013.8 19.0
13/07:30am 19.1 19.2 18.3 95 0.5 SSE 15 20 8 11 1013.8 1013.8 18.8
13/07:26am 18.9 18.9 18.1 95 0.5 SSE 15 20 8 11 1013.7 1013.7 18.8
13/07:13am 18.8 19.7 18.3 97 0.3 SSE 11 15 6 8 1013.8 1013.8 18.8
13/07:00am 18.6 19.4 18.1 97 0.3 S 11 15 6 8 1013.6 1013.6 18.4
13/06:47am 18.5 19.2 18.0 97 0.3 SSW 11 15 6 8 1013.5 1013.5 18.4
13/06:42am 18.5 19.2 18.0 97 0.3 SSW 11 15 6 8 1013.5 1013.5 18.4
13/06:30am 18.3 18.6 17.8 97 0.3 S 13 15 7 8 1013.5 1013.5 18.4

Latest Capital City Observations: Canberra | Sydney | Melbourne | Brisbane | Adelaide | Perth | Hobart | Darwin

Other formats

Comma delimited format used in spreadsheet applications
http://www.bom.gov.au/fwo/IDQ60901/IDQ60901.94592.axf

JavaScript Object Notation format (JSON) in row-major order
http://www.bom.gov.au/fwo/IDQ60901/IDQ60901.94592.json

Data quality

Most of these data are generated automatically and are frequently updated. Quality checks on data are not normally performed. It is possible for incorrect values to appear. Refer to information at About Latest Weather Observations and please check the disclaimer before using these data.